createdAt,value
2022-09-07T00:00:04.636Z,25.01
2022-09-07T00:00:36.528Z,25.01
2022-09-07T00:01:07.990Z,25.01
2022-09-07T00:01:39.480Z,25.01
2022-09-07T00:02:10.913Z,25.00
2022-09-07T00:02:42.387Z,25.01
2022-09-07T00:03:13.996Z,25.00
2022-09-07T00:03:45.618Z,25.01
2022-09-07T00:04:17.071Z,24.99
2022-09-07T00:04:48.559Z,24.98
2022-09-07T00:05:19.979Z,24.99
2022-09-07T00:05:51.425Z,24.99
2022-09-07T00:06:22.867Z,24.98
2022-09-07T00:06:54.292Z,24.98
2022-09-07T00:07:25.724Z,24.97
2022-09-07T00:07:57.156Z,24.98
2022-09-07T00:08:28.620Z,24.97
2022-09-07T00:09:00.108Z,24.97
2022-09-07T00:09:31.547Z,24.98
2022-09-07T00:10:02.977Z,24.96
2022-09-07T00:10:34.403Z,24.96
2022-09-07T00:11:05.827Z,24.97
2022-09-07T00:11:37.257Z,24.96
2022-09-07T00:12:08.685Z,24.96
2022-09-07T00:12:40.114Z,24.95
2022-09-07T00:13:11.539Z,24.94
2022-09-07T00:13:42.987Z,24.95
2022-09-07T00:14:14.563Z,24.95
2022-09-07T00:14:46.006Z,24.94
2022-09-07T00:15:17.436Z,24.95
2022-09-07T00:15:48.889Z,24.94
2022-09-07T00:16:20.515Z,24.94
2022-09-07T00:16:52.054Z,24.94
2022-09-07T00:17:23.493Z,24.93
2022-09-07T00:17:54.915Z,24.92
2022-09-07T00:18:26.393Z,24.93
2022-09-07T00:18:58.001Z,24.93
2022-09-07T00:19:29.433Z,24.91
2022-09-07T00:20:00.878Z,24.91
2022-09-07T00:20:32.312Z,24.91
2022-09-07T00:21:03.745Z,24.90
2022-09-07T00:21:35.185Z,24.91
2022-09-07T00:22:06.651Z,24.92
2022-09-07T00:22:38.081Z,24.92
2022-09-07T00:23:09.513Z,24.92
2022-09-07T00:23:40.941Z,24.90
2022-09-07T00:24:12.465Z,24.89
2022-09-07T00:24:43.895Z,24.90
2022-09-07T00:25:15.323Z,24.90
2022-09-07T00:25:49.164Z,24.89
2022-09-07T00:26:22.583Z,24.90
2022-09-07T00:26:54.004Z,24.89
2022-09-07T00:27:25.431Z,24.89
2022-09-07T00:27:56.865Z,24.87
2022-09-07T00:28:28.313Z,24.87
2022-09-07T00:28:59.751Z,24.87
2022-09-07T00:29:31.217Z,24.87
2022-09-07T00:30:02.650Z,24.86
2022-09-07T00:30:34.090Z,24.86
2022-09-07T00:31:05.617Z,24.86
2022-09-07T00:31:37.079Z,24.85
2022-09-07T00:32:08.541Z,24.85
2022-09-07T00:32:39.979Z,24.85
2022-09-07T00:33:11.410Z,24.85
2022-09-07T00:33:42.848Z,24.86
2022-09-07T00:34:14.281Z,24.86
2022-09-07T00:34:45.736Z,24.82
2022-09-07T00:35:17.166Z,24.83
2022-09-07T00:35:48.587Z,24.83
2022-09-07T00:36:20.104Z,24.83
2022-09-07T00:36:51.552Z,24.83
2022-09-07T00:37:22.984Z,24.83
2022-09-07T00:37:54.414Z,24.83
2022-09-07T00:38:25.842Z,24.82
2022-09-07T00:38:57.267Z,24.82
2022-09-07T00:39:28.740Z,24.83
2022-09-07T00:40:00.306Z,24.82
2022-09-07T00:40:31.855Z,24.81
2022-09-07T00:41:03.279Z,24.82
2022-09-07T00:41:34.707Z,24.80
2022-09-07T00:42:06.155Z,24.80
2022-09-07T00:42:37.575Z,24.80
2022-09-07T00:43:09.002Z,24.79
2022-09-07T00:43:40.428Z,24.79
2022-09-07T00:44:11.853Z,24.79
2022-09-07T00:44:43.282Z,24.79
2022-09-07T00:45:14.734Z,24.80
2022-09-07T00:45:46.161Z,24.79
2022-09-07T00:46:17.681Z,24.80
2022-09-07T00:46:49.271Z,24.80
2022-09-07T00:47:20.724Z,24.80
2022-09-07T00:47:52.147Z,24.80
2022-09-07T00:48:23.581Z,24.78
2022-09-07T00:48:55.019Z,24.79
2022-09-07T00:49:26.448Z,24.77
2022-09-07T00:49:57.871Z,24.77
2022-09-07T00:50:29.518Z,24.77
2022-09-07T00:51:00.949Z,24.77
2022-09-07T00:51:32.386Z,24.76
2022-09-07T00:52:03.812Z,24.77
2022-09-07T00:52:35.238Z,24.77
2022-09-07T00:53:06.667Z,24.77
2022-09-07T00:53:38.098Z,24.76
2022-09-07T00:54:09.533Z,24.76
2022-09-07T00:54:40.960Z,24.77
2022-09-07T00:55:12.384Z,24.74
2022-09-07T00:55:43.895Z,24.75
2022-09-07T00:56:15.325Z,24.74
2022-09-07T00:56:46.754Z,24.74
2022-09-07T00:57:18.179Z,24.75
2022-09-07T00:57:49.599Z,24.74
2022-09-07T00:58:21.028Z,24.74
2022-09-07T00:58:52.458Z,24.73
2022-09-07T00:59:23.883Z,24.72
2022-09-07T00:59:55.320Z,24.72
2022-09-07T01:00:26.750Z,24.72
2022-09-07T01:00:58.259Z,24.73
2022-09-07T01:01:29.792Z,24.71
2022-09-07T01:02:01.447Z,24.72
2022-09-07T01:02:33.210Z,24.71
2022-09-07T01:03:04.844Z,24.72
2022-09-07T01:03:36.372Z,24.72
2022-09-07T01:04:07.800Z,24.72
2022-09-07T01:04:39.223Z,24.73
2022-09-07T01:05:10.650Z,24.73
2022-09-07T01:05:42.080Z,24.72
2022-09-07T01:06:13.548Z,24.71
2022-09-07T01:06:44.977Z,24.72
2022-09-07T01:07:16.411Z,24.71
2022-09-07T01:07:47.838Z,24.71
2022-09-07T01:08:19.259Z,24.70
2022-09-07T01:08:50.679Z,24.71
2022-09-07T01:09:22.112Z,24.71
2022-09-07T01:09:53.551Z,24.70
2022-09-07T01:10:24.984Z,24.70
2022-09-07T01:10:56.411Z,24.70
2022-09-07T01:11:27.912Z,24.69
2022-09-07T01:11:59.337Z,24.69
2022-09-07T01:12:30.764Z,24.69
2022-09-07T01:13:02.191Z,24.69
2022-09-07T01:13:33.615Z,24.67
2022-09-07T01:14:05.077Z,24.67
2022-09-07T01:14:36.506Z,24.68
2022-09-07T01:15:07.937Z,24.67
2022-09-07T01:15:39.402Z,24.67
2022-09-07T01:16:10.876Z,24.67
2022-09-07T01:16:42.376Z,24.68
2022-09-07T01:17:13.806Z,24.67
2022-09-07T01:17:45.249Z,24.66
2022-09-07T01:18:16.672Z,24.67
2022-09-07T01:18:48.101Z,24.66
2022-09-07T01:19:19.519Z,24.66
2022-09-07T01:19:50.964Z,24.66
2022-09-07T01:20:22.456Z,24.67
2022-09-07T01:20:53.883Z,24.66
2022-09-07T01:21:25.417Z,24.66
2022-09-07T01:21:56.877Z,24.66
2022-09-07T01:22:28.302Z,24.65
2022-09-07T01:22:59.731Z,24.64
2022-09-07T01:23:31.160Z,24.66
2022-09-07T01:24:02.588Z,24.64
2022-09-07T01:24:34.024Z,24.64
2022-09-07T01:25:05.470Z,24.64
2022-09-07T01:25:36.897Z,24.63
2022-09-07T01:26:08.328Z,24.62
2022-09-07T01:26:39.891Z,24.63
2022-09-07T01:27:11.342Z,24.63
2022-09-07T01:27:42.763Z,24.63
2022-09-07T01:28:14.183Z,24.62
2022-09-07T01:28:45.614Z,24.62
2022-09-07T01:29:17.133Z,24.62
2022-09-07T01:29:48.569Z,24.60
2022-09-07T01:30:20.002Z,24.62
2022-09-07T01:30:51.456Z,24.61
2022-09-07T01:31:23.060Z,24.61
2022-09-07T01:31:54.661Z,24.60
2022-09-07T01:32:26.120Z,24.60
2022-09-07T01:32:57.553Z,24.60
2022-09-07T01:33:28.989Z,24.60
2022-09-07T01:34:00.419Z,24.60
2022-09-07T01:34:31.849Z,24.59
2022-09-07T01:35:03.281Z,24.60
2022-09-07T01:35:34.707Z,24.59
2022-09-07T01:36:06.144Z,24.59
2022-09-07T01:36:37.565Z,24.58
2022-09-07T01:37:09.140Z,24.59
2022-09-07T01:37:40.584Z,24.59
2022-09-07T01:38:12.017Z,24.59
2022-09-07T01:38:43.449Z,24.59
2022-09-07T01:39:14.875Z,24.59
2022-09-07T01:39:46.367Z,24.59
2022-09-07T01:40:17.841Z,24.58
2022-09-07T01:40:49.274Z,24.58
2022-09-07T01:41:20.700Z,24.59
2022-09-07T01:41:52.164Z,24.57
2022-09-07T01:42:23.705Z,24.57
2022-09-07T01:42:55.127Z,24.57
2022-09-07T01:43:26.545Z,24.58
2022-09-07T01:43:57.969Z,24.57
2022-09-07T01:44:29.393Z,24.57
2022-09-07T01:45:00.820Z,24.58
2022-09-07T01:45:32.248Z,24.57
2022-09-07T01:46:03.707Z,24.55
2022-09-07T01:46:35.228Z,24.55
2022-09-07T01:47:06.714Z,24.55
2022-09-07T01:47:38.161Z,24.54
2022-09-07T01:48:09.590Z,24.55
2022-09-07T01:48:41.021Z,24.54
2022-09-07T01:49:12.471Z,24.53
2022-09-07T01:49:43.905Z,24.53
2022-09-07T01:50:15.334Z,24.53
2022-09-07T01:50:46.763Z,24.52
2022-09-07T01:51:18.191Z,24.54
2022-09-07T01:51:49.624Z,24.53
2022-09-07T01:52:21.047Z,24.52
2022-09-07T01:52:52.541Z,24.53
2022-09-07T01:53:23.977Z,24.52
2022-09-07T01:53:55.407Z,24.52
2022-09-07T01:54:26.837Z,24.52
2022-09-07T01:54:58.255Z,24.51
2022-09-07T01:55:29.675Z,24.50
2022-09-07T01:56:01.113Z,24.52
2022-09-07T01:56:32.541Z,24.51
2022-09-07T01:57:03.976Z,24.50
2022-09-07T01:57:35.416Z,24.50
2022-09-07T01:58:06.915Z,24.50
2022-09-07T01:58:38.347Z,24.51
2022-09-07T01:59:09.782Z,24.51
2022-09-07T01:59:41.212Z,24.50
2022-09-07T02:00:12.759Z,24.51
2022-09-07T02:00:44.211Z,24.51
2022-09-07T02:01:15.744Z,24.50
2022-09-07T02:01:47.302Z,24.49
2022-09-07T02:02:18.756Z,24.50
2022-09-07T02:02:50.286Z,24.50
2022-09-07T02:03:21.723Z,24.50
2022-09-07T02:03:53.151Z,24.49
2022-09-07T02:04:24.580Z,24.50
2022-09-07T02:04:56.008Z,24.48
2022-09-07T02:05:27.436Z,24.50
2022-09-07T02:05:58.863Z,24.49
2022-09-07T02:06:30.288Z,24.50
2022-09-07T02:07:01.729Z,24.49
2022-09-07T02:07:33.168Z,24.48
2022-09-07T02:08:04.622Z,24.48
2022-09-07T02:08:36.052Z,24.47
2022-09-07T02:09:07.484Z,24.46
2022-09-07T02:09:38.914Z,24.46
2022-09-07T02:10:10.345Z,24.46
2022-09-07T02:10:41.779Z,24.45
2022-09-07T02:11:13.218Z,24.45
2022-09-07T02:11:44.649Z,24.45
2022-09-07T02:12:16.081Z,24.45
2022-09-07T02:12:47.512Z,24.45
2022-09-07T02:13:18.991Z,24.43
2022-09-07T02:13:50.432Z,24.44
2022-09-07T02:14:21.859Z,24.44
2022-09-07T02:14:53.293Z,24.43
2022-09-07T02:15:24.720Z,24.44
2022-09-07T02:15:56.215Z,24.43
2022-09-07T02:16:27.688Z,24.42
2022-09-07T02:16:59.144Z,24.42
2022-09-07T02:17:30.576Z,24.42
2022-09-07T02:18:02.116Z,24.42
2022-09-07T02:18:33.548Z,24.43
2022-09-07T02:19:04.988Z,24.42
2022-09-07T02:19:36.415Z,24.43
2022-09-07T02:20:07.835Z,24.42
2022-09-07T02:20:39.257Z,24.43
2022-09-07T02:21:10.691Z,24.42
2022-09-07T02:21:42.123Z,24.43
2022-09-07T02:22:13.560Z,24.43
2022-09-07T02:22:44.989Z,24.41
2022-09-07T02:23:16.432Z,24.43
2022-09-07T02:23:47.867Z,24.43
2022-09-07T02:24:19.296Z,24.41
2022-09-07T02:24:50.720Z,24.41
2022-09-07T02:25:22.160Z,24.40
2022-09-07T02:25:53.593Z,24.42
2022-09-07T02:26:25.019Z,24.39
2022-09-07T02:26:56.451Z,24.39
2022-09-07T02:27:27.880Z,24.39
2022-09-07T02:27:59.303Z,24.39
2022-09-07T02:28:31.016Z,24.40
2022-09-07T02:29:02.510Z,24.39
2022-09-07T02:29:33.948Z,24.39
2022-09-07T02:30:05.375Z,24.40
2022-09-07T02:30:36.809Z,24.39
2022-09-07T02:31:08.307Z,24.38
2022-09-07T02:31:39.821Z,24.39
2022-09-07T02:32:11.248Z,24.37
2022-09-07T02:32:42.675Z,24.37
2022-09-07T02:33:14.184Z,24.37
2022-09-07T02:33:45.632Z,24.37
2022-09-07T02:34:17.064Z,24.36
2022-09-07T02:34:48.487Z,24.36
2022-09-07T02:35:19.913Z,24.37
2022-09-07T02:35:51.349Z,24.37
2022-09-07T02:36:22.778Z,24.37
2022-09-07T02:36:54.204Z,24.37
2022-09-07T02:37:25.631Z,24.36
2022-09-07T02:37:57.085Z,24.36
2022-09-07T02:38:28.708Z,24.36
2022-09-07T02:39:00.173Z,24.35
2022-09-07T02:39:31.658Z,24.36
2022-09-07T02:40:03.290Z,24.36
2022-09-07T02:40:34.877Z,24.35
2022-09-07T02:41:06.305Z,24.35
2022-09-07T02:41:37.729Z,24.35
2022-09-07T02:42:09.152Z,24.35
2022-09-07T02:42:40.579Z,24.35
2022-09-07T02:43:12.014Z,24.34
2022-09-07T02:43:43.532Z,24.32
2022-09-07T02:44:14.969Z,24.34
2022-09-07T02:44:46.395Z,24.33
2022-09-07T02:45:17.822Z,24.32
2022-09-07T02:45:49.317Z,24.31
2022-09-07T02:46:20.917Z,24.32
2022-09-07T02:46:52.380Z,24.31
2022-09-07T02:47:23.813Z,24.31
2022-09-07T02:47:55.250Z,24.31
2022-09-07T02:48:26.768Z,24.31
2022-09-07T02:48:58.323Z,24.31
2022-09-07T02:49:29.754Z,24.31
2022-09-07T02:50:01.175Z,24.30
2022-09-07T02:50:32.600Z,24.30
2022-09-07T02:51:04.060Z,24.30
2022-09-07T02:51:35.480Z,24.30
2022-09-07T02:52:06.912Z,24.30
2022-09-07T02:52:38.350Z,24.29
2022-09-07T02:53:09.776Z,24.29
2022-09-07T02:53:41.222Z,24.29
2022-09-07T02:54:12.788Z,24.28
2022-09-07T02:54:44.223Z,24.29
2022-09-07T02:55:15.664Z,24.30
2022-09-07T02:55:47.095Z,24.30
2022-09-07T02:56:18.516Z,24.29
2022-09-07T02:56:49.947Z,24.30
2022-09-07T02:57:21.376Z,24.29
2022-09-07T02:57:52.812Z,24.29
2022-09-07T02:58:24.336Z,24.29
2022-09-07T02:58:55.787Z,24.29
2022-09-07T02:59:27.259Z,24.29
2022-09-07T02:59:58.689Z,24.29
2022-09-07T03:00:30.126Z,24.28
2022-09-07T03:01:01.619Z,24.27
2022-09-07T03:01:33.161Z,24.28
2022-09-07T03:02:04.770Z,24.28
2022-09-07T03:02:36.398Z,24.25
2022-09-07T03:03:07.887Z,24.25
2022-09-07T03:03:39.323Z,24.25
2022-09-07T03:04:10.748Z,24.25
2022-09-07T03:04:42.241Z,24.25
2022-09-07T03:05:13.678Z,24.25
2022-09-07T03:05:45.113Z,24.25
2022-09-07T03:06:16.560Z,24.24
2022-09-07T03:06:48.000Z,24.24
2022-09-07T03:07:19.433Z,24.24
2022-09-07T03:07:50.863Z,24.24
2022-09-07T03:08:22.293Z,24.24
2022-09-07T03:08:53.729Z,24.24
2022-09-07T03:09:25.151Z,24.24
2022-09-07T03:09:56.671Z,24.24
2022-09-07T03:10:28.120Z,24.23
2022-09-07T03:10:59.554Z,24.22
2022-09-07T03:11:30.984Z,24.23
2022-09-07T03:12:02.416Z,24.23
2022-09-07T03:12:33.852Z,24.23
2022-09-07T03:13:05.275Z,24.22
2022-09-07T03:13:36.715Z,24.21
2022-09-07T03:14:08.136Z,24.22
2022-09-07T03:14:39.573Z,24.21
2022-09-07T03:15:11.074Z,24.21
2022-09-07T03:15:42.583Z,24.21
2022-09-07T03:16:14.127Z,24.22
2022-09-07T03:16:45.633Z,24.21
2022-09-07T03:17:17.073Z,24.21
2022-09-07T03:17:48.510Z,24.21
2022-09-07T03:18:19.945Z,24.21
2022-09-07T03:18:51.370Z,24.20
2022-09-07T03:19:22.792Z,24.19
2022-09-07T03:19:54.228Z,24.19
2022-09-07T03:20:25.688Z,24.20
2022-09-07T03:20:57.124Z,24.20
2022-09-07T03:21:28.561Z,24.20
2022-09-07T03:21:59.988Z,24.20
2022-09-07T03:22:31.417Z,24.19
2022-09-07T03:23:02.843Z,24.19
2022-09-07T03:23:34.297Z,24.18
2022-09-07T03:24:05.730Z,24.18
2022-09-07T03:24:37.156Z,24.18
2022-09-07T03:25:08.585Z,24.18
2022-09-07T03:25:40.111Z,24.17
2022-09-07T03:26:11.535Z,24.17
2022-09-07T03:26:42.959Z,24.17
2022-09-07T03:27:14.426Z,24.17
2022-09-07T03:27:45.855Z,24.17
2022-09-07T03:28:17.279Z,24.17
2022-09-07T03:28:48.703Z,24.16
2022-09-07T03:29:20.133Z,24.17
2022-09-07T03:29:51.581Z,24.16
2022-09-07T03:30:23.007Z,24.17
2022-09-07T03:30:54.534Z,24.16
2022-09-07T03:31:26.034Z,24.15
2022-09-07T03:31:57.497Z,24.15
2022-09-07T03:32:28.930Z,24.15
2022-09-07T03:33:00.356Z,24.16
2022-09-07T03:33:31.784Z,24.16
2022-09-07T03:34:03.212Z,24.14
2022-09-07T03:34:34.700Z,24.14
2022-09-07T03:35:06.126Z,24.14
2022-09-07T03:35:37.556Z,24.14
2022-09-07T03:36:09.057Z,24.14
2022-09-07T03:36:40.501Z,24.14
2022-09-07T03:37:11.935Z,24.14
2022-09-07T03:37:43.376Z,24.15
2022-09-07T03:38:14.812Z,24.14
2022-09-07T03:38:46.253Z,24.13
2022-09-07T03:39:17.684Z,24.13
2022-09-07T03:39:49.189Z,24.12
2022-09-07T03:40:20.633Z,24.13
2022-09-07T03:40:52.055Z,24.11
2022-09-07T03:41:23.519Z,24.11
2022-09-07T03:41:54.944Z,24.12
2022-09-07T03:42:26.375Z,24.11
2022-09-07T03:42:57.804Z,24.11
2022-09-07T03:43:29.248Z,24.10
2022-09-07T03:44:00.681Z,24.09
2022-09-07T03:44:32.111Z,24.10
2022-09-07T03:45:03.540Z,24.09
2022-09-07T03:45:34.975Z,24.10
2022-09-07T03:46:06.468Z,24.10
2022-09-07T03:46:37.987Z,24.08
2022-09-07T03:47:09.427Z,24.09
2022-09-07T03:47:40.847Z,24.09
2022-09-07T03:48:12.271Z,24.09
2022-09-07T03:48:43.692Z,24.09
2022-09-07T03:49:15.130Z,24.09
2022-09-07T03:49:46.560Z,24.09
2022-09-07T03:50:17.988Z,24.08
2022-09-07T03:50:49.421Z,24.09
2022-09-07T03:51:20.845Z,24.09
2022-09-07T03:51:52.351Z,24.08
2022-09-07T03:52:23.781Z,24.08
2022-09-07T03:52:55.209Z,24.08
2022-09-07T03:53:26.646Z,24.08
2022-09-07T03:53:58.081Z,24.08
2022-09-07T03:54:29.509Z,24.06
2022-09-07T03:55:00.948Z,24.06
2022-09-07T03:55:32.380Z,24.07
2022-09-07T03:56:03.802Z,24.06
2022-09-07T03:56:35.356Z,24.05
2022-09-07T03:57:06.798Z,24.05
2022-09-07T03:57:38.227Z,24.05
2022-09-07T03:58:09.656Z,24.05
2022-09-07T03:58:41.084Z,24.04
2022-09-07T03:59:12.513Z,24.04
2022-09-07T03:59:43.954Z,24.03
2022-09-07T04:00:15.376Z,24.04
2022-09-07T04:00:46.800Z,24.04
2022-09-07T04:01:19.083Z,24.04
2022-09-07T04:01:50.619Z,24.03
2022-09-07T04:02:22.132Z,24.04
2022-09-07T04:02:53.606Z,24.04
2022-09-07T04:03:25.077Z,24.03
2022-09-07T04:04:00.050Z,24.03
2022-09-07T04:04:33.495Z,24.03
2022-09-07T04:05:05.091Z,24.03
2022-09-07T04:05:36.519Z,24.02
2022-09-07T04:06:07.958Z,24.03
2022-09-07T04:06:39.400Z,24.02
2022-09-07T04:07:10.886Z,24.03
2022-09-07T04:07:42.321Z,24.02
2022-09-07T04:08:13.753Z,24.03
2022-09-07T04:08:45.181Z,24.02
2022-09-07T04:09:16.599Z,24.02
2022-09-07T04:09:48.027Z,24.02
2022-09-07T04:10:19.457Z,24.01
2022-09-07T04:10:50.884Z,24.01
2022-09-07T04:11:22.313Z,24.01
2022-09-07T04:11:53.735Z,24.00
2022-09-07T04:12:25.243Z,24.00
2022-09-07T04:12:56.669Z,24.01
2022-09-07T04:13:28.102Z,24.00
2022-09-07T04:13:59.538Z,24.01
2022-09-07T04:14:30.964Z,24.00
2022-09-07T04:15:02.397Z,23.99
2022-09-07T04:15:33.820Z,23.99
2022-09-07T04:16:05.252Z,23.98
2022-09-07T04:16:36.716Z,23.99
2022-09-07T04:17:08.265Z,23.99
2022-09-07T04:17:39.823Z,23.99
2022-09-07T04:18:11.244Z,23.99
2022-09-07T04:18:42.667Z,23.98
2022-09-07T04:19:14.138Z,24.00
2022-09-07T04:19:45.673Z,23.97
2022-09-07T04:20:17.103Z,23.98
2022-09-07T04:20:48.527Z,23.97
2022-09-07T04:21:19.957Z,23.97
2022-09-07T04:21:51.384Z,23.99
2022-09-07T04:22:22.816Z,23.96
2022-09-07T04:22:54.540Z,23.97
2022-09-07T04:23:26.004Z,23.96
2022-09-07T04:23:57.424Z,23.97
2022-09-07T04:24:28.848Z,23.97
2022-09-07T04:25:00.281Z,23.96
2022-09-07T04:25:31.710Z,23.95
2022-09-07T04:26:03.162Z,23.96
2022-09-07T04:26:34.591Z,23.95
2022-09-07T04:27:06.012Z,23.95
2022-09-07T04:27:37.442Z,23.95
2022-09-07T04:28:08.975Z,23.94
2022-09-07T04:28:40.408Z,23.95
2022-09-07T04:29:11.834Z,23.95
2022-09-07T04:29:43.265Z,23.94
2022-09-07T04:30:14.696Z,23.95
2022-09-07T04:30:46.202Z,23.93
2022-09-07T04:31:17.727Z,23.93
2022-09-07T04:31:49.188Z,23.93
2022-09-07T04:32:20.616Z,23.93
2022-09-07T04:32:52.053Z,23.94
2022-09-07T04:33:23.537Z,23.93
2022-09-07T04:33:54.979Z,23.92
2022-09-07T04:34:26.407Z,23.92
2022-09-07T04:34:57.836Z,23.93
2022-09-07T04:35:29.266Z,23.92
2022-09-07T04:36:00.691Z,23.92
2022-09-07T04:36:32.119Z,23.90
2022-09-07T04:37:03.557Z,23.91
2022-09-07T04:37:34.984Z,23.91
2022-09-07T04:38:06.412Z,23.90
2022-09-07T04:38:37.899Z,23.90
2022-09-07T04:39:09.331Z,23.90
2022-09-07T04:39:40.821Z,23.90
2022-09-07T04:40:12.355Z,23.90
2022-09-07T04:40:43.827Z,23.90
2022-09-07T04:41:15.255Z,23.89
2022-09-07T04:41:46.732Z,23.89
2022-09-07T04:42:18.156Z,23.89
2022-09-07T04:42:49.584Z,23.89
2022-09-07T04:43:21.013Z,23.88
2022-09-07T04:43:52.479Z,23.87
2022-09-07T04:44:23.905Z,23.88
2022-09-07T04:44:55.332Z,23.89
2022-09-07T04:45:26.764Z,23.89
2022-09-07T04:45:58.267Z,23.89
2022-09-07T04:46:29.838Z,23.89
2022-09-07T04:47:01.340Z,23.88
2022-09-07T04:47:32.778Z,23.88
2022-09-07T04:48:04.214Z,23.89
2022-09-07T04:48:35.632Z,23.89
2022-09-07T04:49:07.143Z,23.88
2022-09-07T04:49:38.569Z,23.88
2022-09-07T04:50:10.005Z,23.89
2022-09-07T04:50:41.437Z,23.88
2022-09-07T04:51:12.864Z,23.89
2022-09-07T04:51:44.326Z,23.88
2022-09-07T04:52:15.784Z,23.87
2022-09-07T04:52:47.211Z,23.87
2022-09-07T04:53:18.645Z,23.88
2022-09-07T04:53:50.080Z,23.88
2022-09-07T04:54:21.616Z,23.87
2022-09-07T04:54:53.047Z,23.88
2022-09-07T04:55:24.483Z,23.87
2022-09-07T04:55:55.911Z,23.88
2022-09-07T04:56:27.516Z,23.87
2022-09-07T04:56:58.948Z,23.87
2022-09-07T04:57:30.368Z,23.88
2022-09-07T04:58:01.792Z,23.88
2022-09-07T04:58:33.216Z,23.88
2022-09-07T04:59:04.649Z,23.87
2022-09-07T04:59:36.192Z,23.86
2022-09-07T05:00:07.615Z,23.87
2022-09-07T05:00:39.043Z,23.88
2022-09-07T05:01:10.563Z,23.87
2022-09-07T05:01:42.147Z,23.87
2022-09-07T05:02:13.715Z,23.87
2022-09-07T05:02:45.254Z,23.88
2022-09-07T05:03:16.764Z,23.88
2022-09-07T05:03:48.188Z,23.88
2022-09-07T05:04:19.616Z,23.88
2022-09-07T05:04:51.171Z,23.87
2022-09-07T05:05:22.600Z,23.86
2022-09-07T05:05:54.021Z,23.87
2022-09-07T05:06:25.443Z,23.87
2022-09-07T05:06:56.869Z,23.87
2022-09-07T05:07:28.299Z,23.86
2022-09-07T05:07:59.720Z,23.86
2022-09-07T05:08:31.308Z,23.86
2022-09-07T05:09:02.801Z,23.86
2022-09-07T05:09:34.229Z,23.86
2022-09-07T05:10:05.748Z,23.86
2022-09-07T05:10:37.175Z,23.86
2022-09-07T05:11:08.601Z,23.85
2022-09-07T05:11:40.029Z,23.85
2022-09-07T05:12:11.465Z,23.85
2022-09-07T05:12:42.903Z,23.85
2022-09-07T05:13:14.340Z,23.85
2022-09-07T05:13:45.772Z,23.83
2022-09-07T05:14:17.195Z,23.85
2022-09-07T05:14:48.622Z,23.83
2022-09-07T05:15:20.078Z,23.83
2022-09-07T05:15:51.515Z,23.84
2022-09-07T05:16:23.009Z,23.85
2022-09-07T05:16:54.475Z,23.84
2022-09-07T05:17:25.949Z,23.85
2022-09-07T05:17:57.379Z,23.84
2022-09-07T05:18:28.935Z,23.84
2022-09-07T05:19:00.457Z,23.84
2022-09-07T05:19:31.896Z,23.85
2022-09-07T05:20:03.341Z,23.85
2022-09-07T05:20:34.895Z,23.84
2022-09-07T05:21:06.324Z,23.84
2022-09-07T05:21:37.753Z,23.85
2022-09-07T05:22:09.181Z,23.85
2022-09-07T05:22:40.603Z,23.84
2022-09-07T05:23:12.197Z,23.84
2022-09-07T05:23:43.635Z,23.84
2022-09-07T05:24:15.075Z,23.84
2022-09-07T05:24:46.517Z,23.85
2022-09-07T05:25:17.953Z,23.84
2022-09-07T05:25:49.426Z,23.83
2022-09-07T05:26:20.865Z,23.85
2022-09-07T05:26:52.297Z,23.83
2022-09-07T05:27:23.720Z,23.83
2022-09-07T05:27:55.153Z,23.83
2022-09-07T05:28:26.632Z,23.83
2022-09-07T05:30:05.815Z,23.83
2022-09-07T05:31:29.324Z,23.83
2022-09-07T05:32:00.750Z,23.84
2022-09-07T05:32:32.193Z,23.84
2022-09-07T05:33:03.621Z,23.85
2022-09-07T05:35:02.769Z,23.84
2022-09-07T05:35:34.192Z,23.83
2022-09-07T05:36:05.708Z,23.84
2022-09-07T05:36:37.141Z,23.85
2022-09-07T05:37:08.573Z,23.85
2022-09-07T05:37:39.995Z,23.84
2022-09-07T05:38:11.431Z,23.83
2022-09-07T05:38:42.876Z,23.84
2022-09-07T05:39:14.307Z,23.85
2022-09-07T05:39:45.792Z,23.84
2022-09-07T05:40:17.344Z,23.85
2022-09-07T05:40:48.837Z,23.85
2022-09-07T05:41:20.295Z,23.86
2022-09-07T05:41:51.739Z,23.86
2022-09-07T05:42:23.164Z,23.86
2022-09-07T05:42:54.589Z,23.86
2022-09-07T05:43:26.016Z,23.86
2022-09-07T05:44:48.837Z,23.85
2022-09-07T05:45:20.267Z,23.85
2022-09-07T05:45:51.739Z,23.86
2022-09-07T05:46:23.267Z,23.87
2022-09-07T05:46:54.700Z,23.87
2022-09-07T05:47:26.123Z,23.86
2022-09-07T05:47:57.548Z,23.87
2022-09-07T05:48:28.999Z,23.86
2022-09-07T05:49:00.427Z,23.85
2022-09-07T05:49:31.864Z,23.86
2022-09-07T05:50:03.293Z,23.88
2022-09-07T05:50:34.728Z,23.88
2022-09-07T05:51:06.156Z,23.88
2022-09-07T05:51:37.635Z,23.88
2022-09-07T05:52:09.064Z,23.88
2022-09-07T05:52:40.496Z,23.88
2022-09-07T05:53:11.925Z,23.88
2022-09-07T05:53:43.351Z,23.88
2022-09-07T05:54:14.779Z,23.88
2022-09-07T05:54:46.208Z,23.88
2022-09-07T05:55:29.382Z,23.89
2022-09-07T05:56:05.209Z,23.88
2022-09-07T05:56:38.592Z,23.88
2022-09-07T05:57:10.016Z,23.88
2022-09-07T05:57:41.440Z,23.89
2022-09-07T05:58:12.876Z,23.88
2022-09-07T05:58:44.305Z,23.87
2022-09-07T05:59:15.731Z,23.87
2022-09-07T05:59:47.172Z,23.87
2022-09-07T06:00:18.604Z,23.87
2022-09-07T06:00:50.027Z,23.87
2022-09-07T06:01:21.456Z,23.87
2022-09-07T06:01:53.015Z,23.88
2022-09-07T06:02:24.646Z,23.88
2022-09-07T06:02:56.210Z,23.88
2022-09-07T06:03:27.735Z,23.89
2022-09-07T06:03:59.191Z,23.89
2022-09-07T06:04:30.609Z,23.90
2022-09-07T06:05:02.035Z,23.90
2022-09-07T06:05:33.461Z,23.89
2022-09-07T06:06:04.975Z,23.88
2022-09-07T06:06:36.417Z,23.89
2022-09-07T06:07:23.739Z,23.88
2022-09-07T06:07:55.223Z,23.87
2022-09-07T06:08:26.662Z,23.88
2022-09-07T06:08:58.097Z,23.88
2022-09-07T06:09:30.713Z,23.88
2022-09-07T06:10:53.692Z,23.89
2022-09-07T06:11:25.128Z,23.89
2022-09-07T06:11:56.613Z,23.88
2022-09-07T06:12:28.043Z,23.89
2022-09-07T06:12:59.476Z,23.89
2022-09-07T06:13:30.979Z,23.88
2022-09-07T06:14:02.432Z,23.88
2022-09-07T06:14:33.865Z,23.89
2022-09-07T06:15:05.296Z,23.89
2022-09-07T06:15:36.785Z,23.90
2022-09-07T06:16:08.283Z,23.89
2022-09-07T06:16:39.786Z,23.90
2022-09-07T06:17:11.285Z,23.89
2022-09-07T06:17:42.712Z,23.89
2022-09-07T06:18:14.136Z,23.90
2022-09-07T06:18:45.574Z,23.89
2022-09-07T06:19:17.007Z,23.89
2022-09-07T06:19:48.436Z,23.90
2022-09-07T06:20:19.871Z,23.90
2022-09-07T06:20:51.299Z,23.90
2022-09-07T06:21:22.719Z,23.90
2022-09-07T06:21:54.155Z,23.90
2022-09-07T06:22:30.115Z,23.91
2022-09-07T06:23:02.325Z,23.91
2022-09-07T06:23:33.756Z,23.90
2022-09-07T06:24:05.530Z,23.90
2022-09-07T06:24:37.081Z,23.90
2022-09-07T06:25:08.512Z,23.90
2022-09-07T06:25:39.944Z,23.90
2022-09-07T06:26:11.380Z,23.91
2022-09-07T06:26:47.627Z,23.92
2022-09-07T06:27:19.179Z,23.91
2022-09-07T06:27:50.672Z,23.93
2022-09-07T06:28:22.104Z,23.93
2022-09-07T06:28:57.271Z,23.94
2022-09-07T06:29:29.385Z,23.94
2022-09-07T06:30:00.818Z,23.95
2022-09-07T06:30:32.252Z,23.94
2022-09-07T06:31:03.757Z,23.94
2022-09-07T06:31:35.239Z,23.95
2022-09-07T06:32:58.396Z,23.95
2022-09-07T06:33:29.850Z,23.94
2022-09-07T06:34:01.279Z,23.96
2022-09-07T06:34:32.713Z,23.97
2022-09-07T06:35:04.145Z,23.96
2022-09-07T06:35:35.578Z,23.97
2022-09-07T06:36:07.062Z,23.99
2022-09-07T06:36:38.488Z,24.00
2022-09-07T06:37:09.912Z,24.01
2022-09-07T06:37:41.413Z,24.01
2022-09-07T06:38:12.869Z,24.01
2022-09-07T06:38:44.296Z,24.02
2022-09-07T06:39:15.737Z,24.02
2022-09-07T06:39:47.212Z,24.02
2022-09-07T06:40:18.676Z,24.03
2022-09-07T06:40:50.290Z,24.04
2022-09-07T06:42:13.154Z,24.04
2022-09-07T06:42:44.721Z,24.05
2022-09-07T06:43:16.147Z,24.06
2022-09-07T06:43:47.580Z,24.08
2022-09-07T06:44:19.171Z,24.06
2022-09-07T06:44:50.687Z,24.06
2022-09-07T06:45:22.164Z,24.06
2022-09-07T06:45:53.876Z,24.08
2022-09-07T06:47:16.797Z,24.10
2022-09-07T06:47:48.343Z,24.11
2022-09-07T06:48:19.797Z,24.12
2022-09-07T06:48:51.250Z,24.13
2022-09-07T06:49:22.680Z,24.15
2022-09-07T06:49:54.113Z,24.14
2022-09-07T06:50:25.576Z,24.15
2022-09-07T06:50:57.181Z,24.15
2022-09-07T06:51:28.619Z,24.16
2022-09-07T06:52:01.195Z,24.17
2022-09-07T06:55:01.404Z,24.20
2022-09-07T06:55:33.118Z,24.21
2022-09-07T06:56:04.544Z,24.22